Flight Track Log - Related Links

Times and Time Zones

All times are in EDT time to prevent confusion due to time zone crossing. See the SWA1303 flight status page for this flight to view local times or setup timezone preferences in your user account.

Time Position Orientation Groundspeed Altitude Reporting Facility
EDT Latitude Longitude Course Direction KTS MPH feet Rate Location/Type
Sat 11:24:35 34.1808 -118.3564 250° West 161 185 38,000  Level Los Angeles Center
Sat 11:25:37 34.1644 -118.4122 250° West 251 289 4,200 -14,758 Descending Los Angeles Center
Sat 11:26:39 34.2192 -118.4508 330° Northwest 224 258 7,500 3,774 Climbing Los Angeles Center
Sat 11:27:41 34.2831 -118.4956 330° Northwest 256 295 12,000 4,146 Climbing Los Angeles Center
Sat 11:28:42 34.3517 -118.5433 330° Northwest 275 316 16,000 3,366 Climbing Los Angeles Center
Sat 11:29:44 34.4489 -118.6106 330° Northwest 347 399 18,900 3,000 Climbing Los Angeles Center
Sat 11:30:46 34.5367 -118.6714 330° Northwest 362 417 22,200 3,171 Climbing Los Angeles Center
Sat 11:31:47 34.6250 -118.7367 329° Northwest 372 428 25,400 2,780 Climbing Los Angeles Center
Sat 11:32:49 34.7175 -118.8017 330° Northwest 384 442 27,900 2,226 Climbing Los Angeles Center
Sat 11:33:51 34.8142 -118.8708 330° Northwest 399 459 30,000 1,016 Climbing Los Angeles Center
Sat 11:34:53 34.9147 -118.9544 326° Northwest 404 465 30,000  Level Los Angeles Center
Sat 11:35:55 35.0081 -119.0297 327° Northwest 402 463 30,000  Level Los Angeles Center
Sat 11:36:56 35.1003 -119.1089 325° Northwest 404 465 30,000  Level Los Angeles Center
Sat 11:37:58 35.1592 -119.2261 302° West 410 472 30,000  Level Los Angeles Center
Sat 11:39:00 35.2297 -119.3711 301° West 413 475 30,000 97 Level Los Angeles Center
Sat 11:40:02 35.2864 -119.4922 300° West 414 476 30,200 1,597 Climbing Los Angeles Center
Sat 11:41:04 35.3431 -119.6108 300° West 406 467 33,300 2,830 Climbing Los Angeles Center
Sat 11:41:48 35.3844 -119.7014 299° West 398 458 35,200 1,543 Climbing Oakland Center
Sat 11:42:49 35.4392 -119.8178 300° West 397 457 36,000 393 Climbing Oakland Center
Sat 11:43:50 35.4939 -119.9342 300° West 398 458 36,000  Level Oakland Center
Sat 11:44:51 35.5478 -120.0483 300° West 394 453 36,000  Level Oakland Center
Sat 11:45:52 35.6006 -120.1639 299° West 393 452 36,000  Level Oakland Center
Sat 11:46:53 35.6528 -120.2783 299° West 392 451 36,000 -439 Level Oakland Center
Sat 11:47:55 35.7053 -120.3936 299° West 392 451 35,100 -976 Descending Oakland Center
Sat 11:48:56 35.7686 -120.5339 299° West 396 456 34,000 -1,033 Descending Oakland Center
Sat 11:49:57 35.8036 -120.6611 289° West 403 464 33,000 -984 Descending Oakland Center
Sat 11:50:58 35.8167 -120.7958 277° West 400 460 32,000 -976 Descending Oakland Center
Sat 11:52:00 35.8631 -120.9061 297° West 386 444 31,000 -976 Descending Oakland Center
Sat 11:53:01 35.9514 -120.9794 326° Northwest 380 437 30,000 -984 Descending Oakland Center
Sat 11:54:02 36.0381 -121.0547 325° Northwest 380 437 29,000 -976 Descending Oakland Center
Sat 11:55:04 36.1217 -121.1281 325° Northwest 369 425 28,000 -1,220 Descending Oakland Center
Sat 11:56:05 36.2044 -121.2011 325° Northwest 365 420 26,500 -1,574 Descending Oakland Center
Sat 11:57:06 36.3008 -121.2842 325° Northwest 352 405 24,800 -1,805 Descending Oakland Center
Sat 11:58:08 36.3781 -121.3511 325° Northwest 340 391 22,800 -1,902 Descending Oakland Center
Sat 11:59:09 36.4528 -121.4161 325° Northwest 329 379 20,900 -1,820 Descending Oakland Center
Sat 12:00:10 36.5236 -121.4792 324° Northwest 314 361 19,100 -2,066 Descending Oakland Center
Sat 12:01:11 36.5997 -121.5272 333° Northwest 307 353 16,700 -2,390 Descending Oakland Center
Sat 12:02:13 36.6894 -121.5533 347° North 324 373 14,200 -2,439 Descending Oakland Center
Sat 12:03:14 36.7767 -121.5811 346° North 322 371 11,700 -2,115 Descending Oakland Center
Sat 12:04:15 36.8669 -121.6125 344° North 310 357 9,900 -1,377 Descending Oakland Center
Sat 12:05:16 36.9383 -121.6358 345° North 271 312 8,900 -488 Descending Oakland Center
Sat 12:06:18 37.0072 -121.6592 345° North 259 298 8,900 -780 Level Oakland Center
Sat 12:07:19 37.0769 -121.6839 344° North 260 299 7,300 -1,426 Descending Oakland Center
Sat 12:08:20 37.1500 -121.6892 357° North 251 289 6,000 -1,426 Descending Oakland Center
Sat 12:09:21 37.1972 -121.7522 313° West 255 293 4,400 -1,512 Descending Oakland Center
Sat 12:10:23 37.2447 -121.8025 320° Northwest 239 275 2,900 -1,171 Descending Oakland Center
Sat 12:11:24 37.2825 -121.8428 320° Northwest 204 235 2,000 -885 Descending Oakland Center
Sat 12:12:25 37.3161 -121.8803 318° Northwest 159 183 1,100 -787 Descending Oakland Center
Sat 12:13:26 37.3436 -121.9092 320° Northwest 139 160 400 -689 Descending Oakland Center
Sat 12:15:00 37.3500 -121.9167 North  Level FlightAware Approximate
Sat 12:22:00 37.3627 -121.9291 North  Level Estimated

Login

Don't have an account? Register now (free) for customized features, flight alerts, and more!